Relevés horaires Chievres (Belgique)


Relevés horaires à Chievres - Lundi 14 Mars 2022
Heure UTC1 Température [°C] Vent [km/h] Hum. [%] Pres.4 [hPa] Visi. [Km] Nébu. [octa] Préc.5 [mm] Cond.
2m. Res. Ros. Dir.2 Vit. Moy. Raf.3
23:00 5.9 5.9 3.9 SE 3.7 -- 5.6 87 1028.2(0.0/3h) 10 -- -- --
22:00 6.4 6.4 3.9 ESE 3.7 -- 3.7 84 1028.5(0.6/3h) 18 -- -- --
21:00 6.5 6.5 3.7 NNO 1.9 -- 3.7 82 1028.4(0.5/3h) 15 -- -- --
20:00 7.5 7.5 3.8 NNO 1.9 -- 3.7 77 1028.2(0.5/3h) 19 -- -- --
19:00 8.7 8.7 3.9 NNO 1.9 -- 3.7 72 1027.7(0.4/3h) 20 -- -- --
18:00 9.7 9.7 4.6 SSO 3.7 -- 13.0 70 1027.7(0.4/3h) 20 -- -- --
17:00 12.0 11.9 4.0 SSO 5.6 -- 9.3 58 1027.5(0.6/3h) 20 -- -- --
16:00 13.1 13.1 5.1 SSO 5.6 -- 11.1 58 1027.2(0.3/3h) 19 -- -- --
15:00 13.1 13.1 4.1 SO 5.6 -- 13.0 54 1027.2(0.2/3h) 20 -- -- --
14:00 12.4 12.4 4.9 OSO 3.7 -- 11.1 60 1026.7(-0.1/3h) 20 -- -- --
13:00 12.0 11.5 4.7 O 7.4 -- 13.0 61 1026.9(0.6/3h) 20 -- -- --
12:00 11.8 10.9 5.5 OSO 9.3 -- 16.7 65 1026.9(1.4/3h) 20 -- -- --
11:00 11.0 9.9 5.8 OSO 9.3 -- 14.8 70 1027(2.4/3h) 20 -- -- --
10:00 10.5 8.8 6.7 SO 13.0 -- 16.7 77 1026.2(2.5/3h) 19 -- -- --
09:00 8.8 7 6.0 SO 11.1 -- 16.7 83 1025.7(2.6/3h) 20 -- -- --
08:00 7.6 5.6 5.8 SO 11.1 -- 14.8 88 1024.5(2.8/3h) 20 -- -- --
07:00 7.0 5.6 5.6 SSO 7.4 -- 11.1 91 1023.7(2.9/3h) 19 -- -- --
06:00 7.0 6.1 5.7 SSO 5.6 -- 14.8 91 1023(3.1/3h) 18 -- 0.2/12h
--
05:00 7.4 6.6 5.9 SSO 5.6 -- 13.0 90 1021.7(2.8/3h) 15 -- -- --
04:00 7.5 5.8 6.1 SSO 9.3 -- 14.8 91 1020.7(2.5/3h) 13 -- -- --
03:00 7.6 5.9 6.3 SSO 9.3 -- 14.8 91 1019.7(2.8/3h) 12 -- -- --
02:00 7.5 5.8 6.2 SSO 9.3 -- 14.8 91 1018.7(2.5/3h) 10 -- -- --
01:00 7.6 5.9 6.5 SSO 9.3 -- 14.8 93 1018.2(2.7/3h) 13 -- -- --
00:00 7.7 6 6.6 SSO 9.3 -- 18.5 93 1017(2.1/3h) 20 -- 0.2/6h
NA

1 Coordinated Universal Time. Actuellement il est 15:00 locale et 14:00 UTC.

2 Le vent souffle depuis la direction indiquée vers la direction oposée.

3 Les rafales max. sont disponible 40 min après l'heure du relevé.

4 Pour les stations d'altitude (plus de 600m) le géopotentiel du niveau le plus proche de la pression obligatoire est indiqué.

5 Les stations disposant d'un diffuseur peuvent indiquer "trace". Cela signifie que des précipitations ont touchés le sol mais que la quantité est inférieure à 0.1 mm.

Récapitulatif de la journée
Température [°C] Vent [km/h] Ensoleillement4 [h] Precipitations totale5 [mm] Pression [Hpa]
Min1 Max.2 Moy.3 Max. Min Max.
6.9 13.6 0 18.5 0 h 0 min 0 1017.0 1028.5

1 Température minimale relevée entre 18:00 UTC la veille et 18:00 UTC le jour donné.

2 Température maximale relevée entre 06:00 UTC le jour donné et 06:00 UTC le lendemain.

3 Vent moyen de la journée basé sur les relevés horaires.

4 Ensoleillement en heures relevé entre 06:00 UTC la veille et 06:00 UTC le jour donné.

5 Précipitations totales tombées entre 06:00 UTC la jour donné et 06:00 UTC le lendemain.

Graphiques horaires